sensor_id;sensor_type;location;lat;lon;timestamp;P1;durP1;ratioP1;P2;durP2;ratioP2
40162;SDS011;25881;47.462;19.304;2023-04-25T00:00:21;2.15;;;1.45;;
40162;SDS011;25881;47.462;19.304;2023-04-25T00:02:47;5.05;;;1.70;;
40162;SDS011;25881;47.462;19.304;2023-04-25T00:05:13;4.00;;;1.70;;
40162;SDS011;25881;47.462;19.304;2023-04-25T00:07:41;2.60;;;1.60;;
40162;SDS011;25881;47.462;19.304;2023-04-25T00:10:08;3.53;;;1.85;;
40162;SDS011;25881;47.462;19.304;2023-04-25T00:12:33;1.45;;;1.35;;
40162;SDS011;25881;47.462;19.304;2023-04-25T00:14:59;4.03;;;1.17;;
40162;SDS011;25881;47.462;19.304;2023-04-25T00:17:25;2.75;;;1.92;;
40162;SDS011;25881;47.462;19.304;2023-04-25T00:19:51;2.50;;;1.90;;
40162;SDS011;25881;47.462;19.304;2023-04-25T00:22:17;3.33;;;1.63;;
40162;SDS011;25881;47.462;19.304;2023-04-25T00:24:43;2.97;;;1.70;;
40162;SDS011;25881;47.462;19.304;2023-04-25T00:27:08;2.92;;;1.80;;
40162;SDS011;25881;47.462;19.304;2023-04-25T00:29:35;2.53;;;1.88;;
40162;SDS011;25881;47.462;19.304;2023-04-25T00:32:01;2.67;;;1.67;;
40162;SDS011;25881;47.462;19.304;2023-04-25T00:34:27;2.40;;;1.70;;
40162;SDS011;25881;47.462;19.304;2023-04-25T00:36:53;6.18;;;2.00;;
40162;SDS011;25881;47.462;19.304;2023-04-25T00:39:19;2.78;;;1.80;;
40162;SDS011;25881;47.462;19.304;2023-04-25T00:41:44;2.72;;;1.52;;
40162;SDS011;25881;47.462;19.304;2023-04-25T00:44:10;3.50;;;2.10;;
40162;SDS011;25881;47.462;19.304;2023-04-25T00:46:36;2.80;;;1.52;;
40162;SDS011;25881;47.462;19.304;2023-04-25T00:49:02;2.65;;;1.73;;
40162;SDS011;25881;47.462;19.304;2023-04-25T00:51:30;2.90;;;1.90;;
40162;SDS011;25881;47.462;19.304;2023-04-25T00:53:58;2.25;;;1.70;;
40162;SDS011;25881;47.462;19.304;2023-04-25T00:56:24;2.83;;;1.90;;
40162;SDS011;25881;47.462;19.304;2023-04-25T00:58:49;2.45;;;1.58;;
40162;SDS011;25881;47.462;19.304;2023-04-25T01:01:18;2.22;;;1.38;;
40162;SDS011;25881;47.462;19.304;2023-04-25T01:03:43;3.42;;;1.65;;
40162;SDS011;25881;47.462;19.304;2023-04-25T01:06:13;2.95;;;1.58;;
40162;SDS011;25881;47.462;19.304;2023-04-25T01:08:39;3.78;;;1.50;;
40162;SDS011;25881;47.462;19.304;2023-04-25T01:11:04;2.28;;;1.48;;
40162;SDS011;25881;47.462;19.304;2023-04-25T01:13:31;2.30;;;1.60;;
40162;SDS011;25881;47.462;19.304;2023-04-25T01:15:58;2.42;;;1.58;;
40162;SDS011;25881;47.462;19.304;2023-04-25T01:18:24;1.90;;;1.30;;
40162;SDS011;25881;47.462;19.304;2023-04-25T01:20:53;2.78;;;1.30;;
40162;SDS011;25881;47.462;19.304;2023-04-25T01:23:21;1.38;;;1.13;;
40162;SDS011;25881;47.462;19.304;2023-04-25T01:25:46;2.10;;;1.25;;
40162;SDS011;25881;47.462;19.304;2023-04-25T01:28:12;2.17;;;1.45;;
40162;SDS011;25881;47.462;19.304;2023-04-25T01:30:37;2.35;;;1.40;;
40162;SDS011;25881;47.462;19.304;2023-04-25T01:33:03;1.95;;;1.42;;
40162;SDS011;25881;47.462;19.304;2023-04-25T01:35:31;2.17;;;1.23;;
40162;SDS011;25881;47.462;19.304;2023-04-25T01:37:56;2.00;;;1.30;;
40162;SDS011;25881;47.462;19.304;2023-04-25T01:40:22;3.67;;;1.50;;
40162;SDS011;25881;47.462;19.304;2023-04-25T01:42:50;2.58;;;1.70;;
40162;SDS011;25881;47.462;19.304;2023-04-25T01:45:15;1.88;;;1.42;;
40162;SDS011;25881;47.462;19.304;2023-04-25T01:47:43;4.03;;;1.30;;
40162;SDS011;25881;47.462;19.304;2023-04-25T01:50:12;2.72;;;1.35;;
40162;SDS011;25881;47.462;19.304;2023-04-25T01:52:37;1.88;;;1.20;;
40162;SDS011;25881;47.462;19.304;2023-04-25T01:55:03;1.17;;;0.93;;
40162;SDS011;25881;47.462;19.304;2023-04-25T01:57:28;2.38;;;1.50;;
40162;SDS011;25881;47.462;19.304;2023-04-25T01:59:59;3.35;;;1.30;;
40162;SDS011;25881;47.462;19.304;2023-04-25T02:02:26;1.85;;;1.45;;
40162;SDS011;25881;47.462;19.304;2023-04-25T02:04:51;2.20;;;1.45;;
40162;SDS011;25881;47.462;19.304;2023-04-25T02:07:17;3.80;;;1.42;;
40162;SDS011;25881;47.462;19.304;2023-04-25T02:09:42;2.58;;;1.55;;
40162;SDS011;25881;47.462;19.304;2023-04-25T02:12:09;2.67;;;1.48;;
40162;SDS011;25881;47.462;19.304;2023-04-25T02:14:35;2.17;;;1.65;;
40162;SDS011;25881;47.462;19.304;2023-04-25T02:17:00;3.95;;;1.85;;
40162;SDS011;25881;47.462;19.304;2023-04-25T02:19:27;5.15;;;2.08;;
40162;SDS011;25881;47.462;19.304;2023-04-25T02:21:52;2.92;;;1.85;;
40162;SDS011;25881;47.462;19.304;2023-04-25T02:24:18;3.33;;;1.83;;
40162;SDS011;25881;47.462;19.304;2023-04-25T02:26:43;3.85;;;2.00;;
40162;SDS011;25881;47.462;19.304;2023-04-25T02:29:10;2.65;;;1.63;;
40162;SDS011;25881;47.462;19.304;2023-04-25T02:31:35;2.67;;;2.00;;
40162;SDS011;25881;47.462;19.304;2023-04-25T02:34:01;2.53;;;1.60;;
40162;SDS011;25881;47.462;19.304;2023-04-25T02:36:26;3.75;;;2.22;;
40162;SDS011;25881;47.462;19.304;2023-04-25T02:38:55;3.95;;;2.10;;
40162;SDS011;25881;47.462;19.304;2023-04-25T02:41:20;4.35;;;1.80;;
40162;SDS011;25881;47.462;19.304;2023-04-25T02:43:45;3.53;;;1.80;;
40162;SDS011;25881;47.462;19.304;2023-04-25T02:46:11;4.93;;;1.83;;
40162;SDS011;25881;47.462;19.304;2023-04-25T02:48:36;2.10;;;1.73;;
40162;SDS011;25881;47.462;19.304;2023-04-25T02:51:01;2.60;;;1.60;;
40162;SDS011;25881;47.462;19.304;2023-04-25T02:53:28;1.70;;;1.38;;
40162;SDS011;25881;47.462;19.304;2023-04-25T02:55:54;2.50;;;1.58;;
40162;SDS011;25881;47.462;19.304;2023-04-25T02:58:23;2.85;;;1.55;;
40162;SDS011;25881;47.462;19.304;2023-04-25T03:00:51;2.55;;;1.50;;
40162;SDS011;25881;47.462;19.304;2023-04-25T03:03:16;3.05;;;1.58;;
40162;SDS011;25881;47.462;19.304;2023-04-25T03:05:49;2.75;;;1.60;;
40162;SDS011;25881;47.462;19.304;2023-04-25T03:08:17;2.38;;;1.65;;
40162;SDS011;25881;47.462;19.304;2023-04-25T03:10:42;1.95;;;1.30;;
40162;SDS011;25881;47.462;19.304;2023-04-25T03:13:08;1.88;;;1.50;;
40162;SDS011;25881;47.462;19.304;2023-04-25T03:15:34;1.77;;;1.30;;
40162;SDS011;25881;47.462;19.304;2023-04-25T03:18:00;2.05;;;1.35;;
40162;SDS011;25881;47.462;19.304;2023-04-25T03:20:25;1.30;;;1.00;;
40162;SDS011;25881;47.462;19.304;2023-04-25T03:22:51;1.42;;;1.08;;
40162;SDS011;25881;47.462;19.304;2023-04-25T03:25:17;1.83;;;1.13;;
40162;SDS011;25881;47.462;19.304;2023-04-25T03:27:43;1.95;;;1.25;;
40162;SDS011;25881;47.462;19.304;2023-04-25T03:30:08;1.63;;;1.02;;
40162;SDS011;25881;47.462;19.304;2023-04-25T03:32:34;2.25;;;1.30;;
40162;SDS011;25881;47.462;19.304;2023-04-25T03:35:01;2.88;;;1.20;;
40162;SDS011;25881;47.462;19.304;2023-04-25T03:37:26;2.33;;;1.23;;
40162;SDS011;25881;47.462;19.304;2023-04-25T03:39:52;1.88;;;0.95;;
40162;SDS011;25881;47.462;19.304;2023-04-25T03:42:18;1.80;;;1.48;;
40162;SDS011;25881;47.462;19.304;2023-04-25T03:44:44;1.85;;;1.00;;
40162;SDS011;25881;47.462;19.304;2023-04-25T03:47:10;1.70;;;1.20;;
40162;SDS011;25881;47.462;19.304;2023-04-25T03:49:36;2.38;;;1.30;;
40162;SDS011;25881;47.462;19.304;2023-04-25T03:52:02;1.52;;;1.08;;
40162;SDS011;25881;47.462;19.304;2023-04-25T03:54:27;1.50;;;1.05;;
40162;SDS011;25881;47.462;19.304;2023-04-25T03:56:53;3.20;;;1.45;;
40162;SDS011;25881;47.462;19.304;2023-04-25T03:59:18;1.90;;;1.20;;
40162;SDS011;25881;47.462;19.304;2023-04-25T04:01:45;2.35;;;1.52;;
40162;SDS011;25881;47.462;19.304;2023-04-25T04:04:10;1.45;;;1.35;;
40162;SDS011;25881;47.462;19.304;2023-04-25T04:06:38;1.85;;;1.30;;
40162;SDS011;25881;47.462;19.304;2023-04-25T04:09:03;3.33;;;1.10;;
40162;SDS011;25881;47.462;19.304;2023-04-25T04:11:28;1.85;;;1.10;;
40162;SDS011;25881;47.462;19.304;2023-04-25T04:16:23;1.40;;;1.00;;
40162;SDS011;25881;47.462;19.304;2023-04-25T04:18:49;3.78;;;1.20;;
40162;SDS011;25881;47.462;19.304;2023-04-25T04:21:14;1.98;;;1.20;;
40162;SDS011;25881;47.462;19.304;2023-04-25T04:23:40;1.00;;;0.90;;
40162;SDS011;25881;47.462;19.304;2023-04-25T04:26:07;2.05;;;1.00;;
40162;SDS011;25881;47.462;19.304;2023-04-25T04:28:34;1.05;;;0.80;;
40162;SDS011;25881;47.462;19.304;2023-04-25T04:31:02;2.13;;;1.10;;
40162;SDS011;25881;47.462;19.304;2023-04-25T04:33:28;1.00;;;0.82;;
40162;SDS011;25881;47.462;19.304;2023-04-25T04:35:54;2.38;;;1.23;;
40162;SDS011;25881;47.462;19.304;2023-04-25T04:38:20;1.67;;;1.17;;
40162;SDS011;25881;47.462;19.304;2023-04-25T04:40:47;1.40;;;1.23;;
40162;SDS011;25881;47.462;19.304;2023-04-25T04:43:13;1.88;;;0.93;;
40162;SDS011;25881;47.462;19.304;2023-04-25T04:45:39;0.85;;;0.80;;
40162;SDS011;25881;47.462;19.304;2023-04-25T04:48:06;2.75;;;1.17;;
40162;SDS011;25881;47.462;19.304;2023-04-25T04:50:31;1.80;;;1.10;;
40162;SDS011;25881;47.462;19.304;2023-04-25T04:52:57;1.50;;;1.10;;
40162;SDS011;25881;47.462;19.304;2023-04-25T04:55:23;1.10;;;1.00;;
40162;SDS011;25881;47.462;19.304;2023-04-25T04:57:48;1.17;;;1.00;;
40162;SDS011;25881;47.462;19.304;2023-04-25T05:00:15;3.03;;;1.60;;
40162;SDS011;25881;47.462;19.304;2023-04-25T05:02:40;4.90;;;2.03;;
40162;SDS011;25881;47.462;19.304;2023-04-25T05:05:06;3.67;;;2.15;;
40162;SDS011;25881;47.462;19.304;2023-04-25T05:07:33;2.80;;;1.60;;
40162;SDS011;25881;47.462;19.304;2023-04-25T05:09:58;2.53;;;1.55;;
40162;SDS011;25881;47.462;19.304;2023-04-25T05:12:24;1.70;;;1.10;;
40162;SDS011;25881;47.462;19.304;2023-04-25T05:14:50;4.35;;;1.25;;
40162;SDS011;25881;47.462;19.304;2023-04-25T05:17:16;3.25;;;1.73;;
40162;SDS011;25881;47.462;19.304;2023-04-25T05:19:41;2.90;;;1.50;;
40162;SDS011;25881;47.462;19.304;2023-04-25T05:22:07;1.42;;;1.30;;
40162;SDS011;25881;47.462;19.304;2023-04-25T05:24:33;1.50;;;1.02;;
40162;SDS011;25881;47.462;19.304;2023-04-25T05:26:58;1.75;;;1.25;;
40162;SDS011;25881;47.462;19.304;2023-04-25T05:29:24;1.80;;;1.30;;
40162;SDS011;25881;47.462;19.304;2023-04-25T05:31:49;1.63;;;1.13;;
40162;SDS011;25881;47.462;19.304;2023-04-25T05:34:15;1.98;;;1.27;;
40162;SDS011;25881;47.462;19.304;2023-04-25T05:36:42;1.85;;;1.20;;
40162;SDS011;25881;47.462;19.304;2023-04-25T05:39:07;2.42;;;1.15;;
40162;SDS011;25881;47.462;19.304;2023-04-25T05:41:35;1.35;;;1.00;;
40162;SDS011;25881;47.462;19.304;2023-04-25T05:44:00;1.73;;;1.20;;
40162;SDS011;25881;47.462;19.304;2023-04-25T05:46:26;1.33;;;1.02;;
40162;SDS011;25881;47.462;19.304;2023-04-25T05:48:51;2.25;;;1.52;;
40162;SDS011;25881;47.462;19.304;2023-04-25T05:51:17;1.83;;;0.90;;
40162;SDS011;25881;47.462;19.304;2023-04-25T05:53:43;1.10;;;0.98;;
40162;SDS011;25881;47.462;19.304;2023-04-25T05:56:10;1.75;;;1.10;;
40162;SDS011;25881;47.462;19.304;2023-04-25T05:58:35;1.60;;;1.17;;
40162;SDS011;25881;47.462;19.304;2023-04-25T06:01:01;2.08;;;1.15;;
40162;SDS011;25881;47.462;19.304;2023-04-25T06:03:28;1.45;;;1.05;;
40162;SDS011;25881;47.462;19.304;2023-04-25T06:05:53;1.90;;;1.13;;
40162;SDS011;25881;47.462;19.304;2023-04-25T06:08:19;2.75;;;1.10;;
40162;SDS011;25881;47.462;19.304;2023-04-25T06:10:44;1.75;;;0.90;;
40162;SDS011;25881;47.462;19.304;2023-04-25T06:13:09;2.78;;;0.85;;
40162;SDS011;25881;47.462;19.304;2023-04-25T06:15:35;2.03;;;1.17;;
40162;SDS011;25881;47.462;19.304;2023-04-25T06:18:01;1.30;;;0.85;;
40162;SDS011;25881;47.462;19.304;2023-04-25T06:20:26;1.95;;;1.15;;
40162;SDS011;25881;47.462;19.304;2023-04-25T06:22:53;1.38;;;0.90;;
40162;SDS011;25881;47.462;19.304;2023-04-25T06:25:18;1.88;;;1.00;;
40162;SDS011;25881;47.462;19.304;2023-04-25T06:27:44;1.42;;;1.00;;
40162;SDS011;25881;47.462;19.304;2023-04-25T06:30:10;1.67;;;1.10;;
40162;SDS011;25881;47.462;19.304;2023-04-25T06:32:37;2.67;;;1.08;;
40162;SDS011;25881;47.462;19.304;2023-04-25T06:35:02;1.15;;;0.82;;
40162;SDS011;25881;47.462;19.304;2023-04-25T06:37:29;3.47;;;1.00;;
40162;SDS011;25881;47.462;19.304;2023-04-25T06:39:55;2.03;;;1.10;;
40162;SDS011;25881;47.462;19.304;2023-04-25T06:42:20;1.10;;;0.90;;
40162;SDS011;25881;47.462;19.304;2023-04-25T06:44:47;1.50;;;1.00;;
40162;SDS011;25881;47.462;19.304;2023-04-25T06:47:13;1.05;;;0.98;;
40162;SDS011;25881;47.462;19.304;2023-04-25T06:49:38;3.65;;;1.25;;
40162;SDS011;25881;47.462;19.304;2023-04-25T06:52:03;3.17;;;1.00;;
40162;SDS011;25881;47.462;19.304;2023-04-25T06:54:30;1.65;;;1.23;;
40162;SDS011;25881;47.462;19.304;2023-04-25T06:56:55;2.53;;;1.10;;
40162;SDS011;25881;47.462;19.304;2023-04-25T06:59:21;1.27;;;0.93;;
40162;SDS011;25881;47.462;19.304;2023-04-25T07:01:46;2.15;;;1.40;;
40162;SDS011;25881;47.462;19.304;2023-04-25T07:04:12;1.60;;;1.03;;
40162;SDS011;25881;47.462;19.304;2023-04-25T07:06:37;2.50;;;1.25;;
40162;SDS011;25881;47.462;19.304;2023-04-25T07:09:09;3.30;;;1.95;;
40162;SDS011;25881;47.462;19.304;2023-04-25T07:11:38;2.47;;;1.73;;
40162;SDS011;25881;47.462;19.304;2023-04-25T07:14:03;2.58;;;1.65;;
40162;SDS011;25881;47.462;19.304;2023-04-25T07:16:29;2.10;;;1.38;;
40162;SDS011;25881;47.462;19.304;2023-04-25T07:18:54;3.70;;;1.80;;
40162;SDS011;25881;47.462;19.304;2023-04-25T07:21:21;1.92;;;1.60;;
40162;SDS011;25881;47.462;19.304;2023-04-25T07:23:47;2.60;;;1.50;;
40162;SDS011;25881;47.462;19.304;2023-04-25T07:26:12;1.30;;;1.20;;
40162;SDS011;25881;47.462;19.304;2023-04-25T07:28:37;3.22;;;1.60;;
40162;SDS011;25881;47.462;19.304;2023-04-25T07:31:03;3.17;;;1.80;;
40162;SDS011;25881;47.462;19.304;2023-04-25T07:33:30;2.17;;;1.73;;
40162;SDS011;25881;47.462;19.304;2023-04-25T07:35:55;3.08;;;2.08;;
40162;SDS011;25881;47.462;19.304;2023-04-25T07:38:21;4.75;;;2.30;;
40162;SDS011;25881;47.462;19.304;2023-04-25T07:40:48;2.67;;;1.85;;
40162;SDS011;25881;47.462;19.304;2023-04-25T07:43:14;4.05;;;2.28;;
40162;SDS011;25881;47.462;19.304;2023-04-25T07:45:45;3.73;;;2.10;;
40162;SDS011;25881;47.462;19.304;2023-04-25T07:48:10;3.92;;;2.38;;
40162;SDS011;25881;47.462;19.304;2023-04-25T07:50:36;3.88;;;2.35;;
40162;SDS011;25881;47.462;19.304;2023-04-25T07:53:02;5.15;;;2.55;;
40162;SDS011;25881;47.462;19.304;2023-04-25T07:55:28;7.53;;;3.70;;
40162;SDS011;25881;47.462;19.304;2023-04-25T07:57:53;3.53;;;2.53;;
40162;SDS011;25881;47.462;19.304;2023-04-25T08:00:18;3.63;;;2.15;;
40162;SDS011;25881;47.462;19.304;2023-04-25T08:02:46;5.35;;;2.53;;
40162;SDS011;25881;47.462;19.304;2023-04-25T08:05:11;4.82;;;2.35;;
40162;SDS011;25881;47.462;19.304;2023-04-25T08:07:40;5.07;;;2.95;;
40162;SDS011;25881;47.462;19.304;2023-04-25T08:10:07;3.57;;;2.37;;
40162;SDS011;25881;47.462;19.304;2023-04-25T08:12:33;3.90;;;2.42;;
40162;SDS011;25881;47.462;19.304;2023-04-25T08:14:58;2.78;;;1.65;;
40162;SDS011;25881;47.462;19.304;2023-04-25T08:17:24;3.60;;;2.22;;
40162;SDS011;25881;47.462;19.304;2023-04-25T08:19:49;3.55;;;2.17;;
40162;SDS011;25881;47.462;19.304;2023-04-25T08:22:15;4.10;;;2.10;;
40162;SDS011;25881;47.462;19.304;2023-04-25T08:24:41;3.85;;;2.05;;
40162;SDS011;25881;47.462;19.304;2023-04-25T08:27:07;3.90;;;2.10;;
40162;SDS011;25881;47.462;19.304;2023-04-25T08:29:33;2.85;;;2.00;;
40162;SDS011;25881;47.462;19.304;2023-04-25T08:31:58;6.82;;;2.25;;
40162;SDS011;25881;47.462;19.304;2023-04-25T08:34:25;2.78;;;2.10;;
40162;SDS011;25881;47.462;19.304;2023-04-25T08:36:51;3.30;;;2.00;;
40162;SDS011;25881;47.462;19.304;2023-04-25T08:39:17;2.45;;;1.52;;
40162;SDS011;25881;47.462;19.304;2023-04-25T08:41:44;3.17;;;1.70;;
40162;SDS011;25881;47.462;19.304;2023-04-25T08:44:10;3.20;;;2.17;;
40162;SDS011;25881;47.462;19.304;2023-04-25T08:46:35;2.85;;;1.90;;
40162;SDS011;25881;47.462;19.304;2023-04-25T08:49:03;3.23;;;1.63;;
40162;SDS011;25881;47.462;19.304;2023-04-25T08:51:30;2.63;;;1.98;;
40162;SDS011;25881;47.462;19.304;2023-04-25T08:53:57;3.40;;;2.40;;
40162;SDS011;25881;47.462;19.304;2023-04-25T08:56:30;3.15;;;1.92;;
40162;SDS011;25881;47.462;19.304;2023-04-25T08:58:59;2.65;;;1.77;;
40162;SDS011;25881;47.462;19.304;2023-04-25T09:01:26;2.55;;;1.70;;
40162;SDS011;25881;47.462;19.304;2023-04-25T09:03:52;1.60;;;1.40;;
40162;SDS011;25881;47.462;19.304;2023-04-25T09:06:18;3.03;;;2.10;;
40162;SDS011;25881;47.462;19.304;2023-04-25T09:08:44;2.08;;;1.58;;
40162;SDS011;25881;47.462;19.304;2023-04-25T09:11:09;1.60;;;1.20;;
40162;SDS011;25881;47.462;19.304;2023-04-25T09:13:35;2.00;;;1.50;;
40162;SDS011;25881;47.462;19.304;2023-04-25T09:16:00;1.70;;;1.50;;
40162;SDS011;25881;47.462;19.304;2023-04-25T09:18:32;2.42;;;1.67;;
40162;SDS011;25881;47.462;19.304;2023-04-25T09:21:05;2.75;;;1.75;;
40162;SDS011;25881;47.462;19.304;2023-04-25T09:23:31;3.42;;;1.75;;
40162;SDS011;25881;47.462;19.304;2023-04-25T09:26:06;2.28;;;1.40;;
40162;SDS011;25881;47.462;19.304;2023-04-25T09:28:31;2.28;;;1.52;;
40162;SDS011;25881;47.462;19.304;2023-04-25T09:30:57;1.73;;;1.17;;
40162;SDS011;25881;47.462;19.304;2023-04-25T09:33:30;2.15;;;1.63;;
40162;SDS011;25881;47.462;19.304;2023-04-25T09:36:03;2.72;;;1.48;;
40162;SDS011;25881;47.462;19.304;2023-04-25T09:38:31;2.28;;;1.60;;
40162;SDS011;25881;47.462;19.304;2023-04-25T09:40:56;2.30;;;1.45;;
40162;SDS011;25881;47.462;19.304;2023-04-25T09:43:23;2.20;;;1.45;;
40162;SDS011;25881;47.462;19.304;2023-04-25T09:45:49;2.40;;;1.60;;
40162;SDS011;25881;47.462;19.304;2023-04-25T09:48:17;2.53;;;1.35;;
40162;SDS011;25881;47.462;19.304;2023-04-25T09:50:44;1.40;;;1.15;;
40162;SDS011;25881;47.462;19.304;2023-04-25T09:53:10;1.50;;;1.10;;
40162;SDS011;25881;47.462;19.304;2023-04-25T09:55:36;1.95;;;1.23;;
40162;SDS011;25881;47.462;19.304;2023-04-25T09:58:05;1.60;;;1.15;;
40162;SDS011;25881;47.462;19.304;2023-04-25T10:00:32;2.10;;;1.63;;
40162;SDS011;25881;47.462;19.304;2023-04-25T10:03:00;1.63;;;1.23;;
40162;SDS011;25881;47.462;19.304;2023-04-25T10:05:26;1.77;;;1.10;;
40162;SDS011;25881;47.462;19.304;2023-04-25T10:07:53;1.60;;;1.15;;
40162;SDS011;25881;47.462;19.304;2023-04-25T10:10:19;1.92;;;1.27;;
40162;SDS011;25881;47.462;19.304;2023-04-25T10:12:50;1.10;;;0.93;;
40162;SDS011;25881;47.462;19.304;2023-04-25T10:15:18;1.98;;;0.90;;
40162;SDS011;25881;47.462;19.304;2023-04-25T10:17:46;0.98;;;0.75;;
40162;SDS011;25881;47.462;19.304;2023-04-25T10:20:12;1.23;;;1.02;;
40162;SDS011;25881;47.462;19.304;2023-04-25T10:22:41;1.27;;;1.00;;
40162;SDS011;25881;47.462;19.304;2023-04-25T10:25:07;1.13;;;0.80;;
40162;SDS011;25881;47.462;19.304;2023-04-25T10:27:34;0.43;;;0.43;;
40162;SDS011;25881;47.462;19.304;2023-04-25T10:30:03;0.80;;;0.80;;
40162;SDS011;25881;47.462;19.304;2023-04-25T10:32:32;0.77;;;0.70;;
40162;SDS011;25881;47.462;19.304;2023-04-25T10:35:09;0.60;;;0.60;;
40162;SDS011;25881;47.462;19.304;2023-04-25T10:37:34;0.80;;;0.80;;
40162;SDS011;25881;47.462;19.304;2023-04-25T10:40:03;0.75;;;0.75;;
40162;SDS011;25881;47.462;19.304;2023-04-25T10:42:34;0.55;;;0.55;;
40162;SDS011;25881;47.462;19.304;2023-04-25T10:45:09;0.70;;;0.70;;
40162;SDS011;25881;47.462;19.304;2023-04-25T10:47:36;0.77;;;0.70;;
40162;SDS011;25881;47.462;19.304;2023-04-25T10:50:05;0.70;;;0.70;;
40162;SDS011;25881;47.462;19.304;2023-04-25T10:52:32;0.82;;;0.82;;
40162;SDS011;25881;47.462;19.304;2023-04-25T10:54:59;1.25;;;1.02;;
40162;SDS011;25881;47.462;19.304;2023-04-25T10:57:28;0.70;;;0.70;;
40162;SDS011;25881;47.462;19.304;2023-04-25T10:59:57;0.85;;;0.85;;
40162;SDS011;25881;47.462;19.304;2023-04-25T11:02:24;0.47;;;0.47;;
40162;SDS011;25881;47.462;19.304;2023-04-25T11:04:54;1.60;;;0.90;;
40162;SDS011;25881;47.462;19.304;2023-04-25T11:10:06;1.52;;;0.88;;
40162;SDS011;25881;47.462;19.304;2023-04-25T11:12:32;0.70;;;0.70;;
40162;SDS011;25881;47.462;19.304;2023-04-25T11:15:03;1.08;;;0.63;;
40162;SDS011;25881;47.462;19.304;2023-04-25T11:17:29;0.60;;;0.60;;
40162;SDS011;25881;47.462;19.304;2023-04-25T11:19:56;0.50;;;0.50;;
40162;SDS011;25881;47.462;19.304;2023-04-25T11:22:22;0.65;;;0.50;;
40162;SDS011;25881;47.462;19.304;2023-04-25T11:24:47;1.92;;;1.00;;
40162;SDS011;25881;47.462;19.304;2023-04-25T11:27:13;0.50;;;0.50;;
40162;SDS011;25881;47.462;19.304;2023-04-25T11:29:39;0.52;;;0.47;;
40162;SDS011;25881;47.462;19.304;2023-04-25T11:32:04;0.40;;;0.40;;
40162;SDS011;25881;47.462;19.304;2023-04-25T11:34:30;1.23;;;0.40;;
40162;SDS011;25881;47.462;19.304;2023-04-25T11:36:56;0.82;;;0.50;;
40162;SDS011;25881;47.462;19.304;2023-04-25T11:39:23;0.40;;;0.40;;
40162;SDS011;25881;47.462;19.304;2023-04-25T11:41:50;0.40;;;0.40;;
40162;SDS011;25881;47.462;19.304;2023-04-25T11:44:16;0.40;;;0.40;;
40162;SDS011;25881;47.462;19.304;2023-04-25T11:46:43;0.85;;;0.50;;
40162;SDS011;25881;47.462;19.304;2023-04-25T11:49:08;2.75;;;0.40;;
40162;SDS011;25881;47.462;19.304;2023-04-25T11:51:40;0.35;;;0.35;;
40162;SDS011;25881;47.462;19.304;2023-04-25T11:54:07;0.50;;;0.50;;
40162;SDS011;25881;47.462;19.304;2023-04-25T11:56:33;0.40;;;0.40;;
40162;SDS011;25881;47.462;19.304;2023-04-25T11:59:04;0.50;;;0.50;;
40162;SDS011;25881;47.462;19.304;2023-04-25T12:03:56;0.40;;;0.40;;
40162;SDS011;25881;47.462;19.304;2023-04-25T12:06:25;0.52;;;0.30;;
40162;SDS011;25881;47.462;19.304;2023-04-25T12:09:04;0.43;;;0.40;;
40162;SDS011;25881;47.462;19.304;2023-04-25T12:11:40;1.95;;;0.40;;
40162;SDS011;25881;47.462;19.304;2023-04-25T12:14:06;1.05;;;0.70;;
40162;SDS011;25881;47.462;19.304;2023-04-25T12:16:43;0.80;;;0.50;;
40162;SDS011;25881;47.462;19.304;2023-04-25T12:19:09;0.50;;;0.50;;
40162;SDS011;25881;47.462;19.304;2023-04-25T12:21:35;0.38;;;0.32;;
40162;SDS011;25881;47.462;19.304;2023-04-25T12:24:10;0.60;;;0.40;;
40162;SDS011;25881;47.462;19.304;2023-04-25T12:26:46;0.43;;;0.43;;
40162;SDS011;25881;47.462;19.304;2023-04-25T12:29:17;1.00;;;0.50;;
40162;SDS011;25881;47.462;19.304;2023-04-25T12:31:42;0.80;;;0.70;;
40162;SDS011;25881;47.462;19.304;2023-04-25T12:34:08;1.38;;;0.73;;
40162;SDS011;25881;47.462;19.304;2023-04-25T12:36:33;2.88;;;0.90;;
40162;SDS011;25881;47.462;19.304;2023-04-25T12:38:59;1.13;;;0.60;;
40162;SDS011;25881;47.462;19.304;2023-04-25T12:41:30;1.05;;;0.50;;
40162;SDS011;25881;47.462;19.304;2023-04-25T12:43:55;0.38;;;0.38;;
40162;SDS011;25881;47.462;19.304;2023-04-25T12:46:21;0.50;;;0.50;;
40162;SDS011;25881;47.462;19.304;2023-04-25T12:48:48;0.43;;;0.40;;
40162;SDS011;25881;47.462;19.304;2023-04-25T12:51:13;0.30;;;0.30;;
40162;SDS011;25881;47.462;19.304;2023-04-25T12:53:39;1.65;;;0.50;;
40162;SDS011;25881;47.462;19.304;2023-04-25T12:56:06;0.60;;;0.55;;
40162;SDS011;25881;47.462;19.304;2023-04-25T12:58:32;0.50;;;0.50;;
40162;SDS011;25881;47.462;19.304;2023-04-25T13:00:59;0.60;;;0.60;;
40162;SDS011;25881;47.462;19.304;2023-04-25T13:03:25;0.68;;;0.60;;
40162;SDS011;25881;47.462;19.304;2023-04-25T13:05:51;1.17;;;0.70;;
40162;SDS011;25881;47.462;19.304;2023-04-25T13:08:18;0.43;;;0.43;;
40162;SDS011;25881;47.462;19.304;2023-04-25T13:10:44;0.70;;;0.55;;
40162;SDS011;25881;47.462;19.304;2023-04-25T13:13:09;0.55;;;0.52;;
40162;SDS011;25881;47.462;19.304;2023-04-25T13:15:35;0.40;;;0.40;;
40162;SDS011;25881;47.462;19.304;2023-04-25T13:18:00;0.50;;;0.50;;
40162;SDS011;25881;47.462;19.304;2023-04-25T13:20:27;2.47;;;0.70;;
40162;SDS011;25881;47.462;19.304;2023-04-25T13:22:52;0.65;;;0.50;;
40162;SDS011;25881;47.462;19.304;2023-04-25T13:25:18;0.80;;;0.52;;
40162;SDS011;25881;47.462;19.304;2023-04-25T13:27:43;0.82;;;0.60;;
40162;SDS011;25881;47.462;19.304;2023-04-25T13:30:10;1.08;;;0.60;;
40162;SDS011;25881;47.462;19.304;2023-04-25T13:32:36;0.43;;;0.43;;
40162;SDS011;25881;47.462;19.304;2023-04-25T13:35:05;1.37;;;0.77;;
40162;SDS011;25881;47.462;19.304;2023-04-25T13:37:31;0.70;;;0.68;;
40162;SDS011;25881;47.462;19.304;2023-04-25T13:40:00;1.05;;;0.50;;
40162;SDS011;25881;47.462;19.304;2023-04-25T13:42:29;0.63;;;0.50;;
40162;SDS011;25881;47.462;19.304;2023-04-25T13:44:56;0.70;;;0.60;;
40162;SDS011;25881;47.462;19.304;2023-04-25T13:47:22;0.95;;;0.63;;
40162;SDS011;25881;47.462;19.304;2023-04-25T13:49:48;0.40;;;0.40;;
40162;SDS011;25881;47.462;19.304;2023-04-25T13:52:13;0.60;;;0.60;;
40162;SDS011;25881;47.462;19.304;2023-04-25T13:54:40;1.02;;;0.68;;
40162;SDS011;25881;47.462;19.304;2023-04-25T13:57:06;1.30;;;0.60;;
40162;SDS011;25881;47.462;19.304;2023-04-25T13:59:31;0.73;;;0.50;;
40162;SDS011;25881;47.462;19.304;2023-04-25T14:01:57;1.05;;;0.75;;
40162;SDS011;25881;47.462;19.304;2023-04-25T14:04:22;1.08;;;0.73;;
40162;SDS011;25881;47.462;19.304;2023-04-25T14:06:49;0.80;;;0.80;;
40162;SDS011;25881;47.462;19.304;2023-04-25T14:09:15;0.50;;;0.50;;
40162;SDS011;25881;47.462;19.304;2023-04-25T14:11:40;1.50;;;0.73;;
40162;SDS011;25881;47.462;19.304;2023-04-25T14:14:05;0.82;;;0.70;;
40162;SDS011;25881;47.462;19.304;2023-04-25T14:16:31;0.50;;;0.50;;
40162;SDS011;25881;47.462;19.304;2023-04-25T14:19:00;0.68;;;0.65;;
40162;SDS011;25881;47.462;19.304;2023-04-25T14:21:26;1.88;;;0.75;;
40162;SDS011;25881;47.462;19.304;2023-04-25T14:23:52;2.92;;;0.80;;
40162;SDS011;25881;47.462;19.304;2023-04-25T14:26:17;1.15;;;0.70;;
40162;SDS011;25881;47.462;19.304;2023-04-25T14:28:43;1.13;;;1.02;;
40162;SDS011;25881;47.462;19.304;2023-04-25T14:31:08;1.63;;;0.70;;
40162;SDS011;25881;47.462;19.304;2023-04-25T14:33:34;0.95;;;0.60;;
40162;SDS011;25881;47.462;19.304;2023-04-25T14:36:01;1.75;;;0.77;;